This is the latest recevied weather packets stored in our database for station/object E24BD-10. If no packets are shown the sender has not sent any weather packets the latest 10 day(s).
| Time | Temp. | Humidity | Pressure | Rain* | Wind** | Luminosity | Snow |
|---|---|---|---|---|---|---|---|
| 1777806698 | 37.78° C | 44% | 996 hPa | - | - | 0 W/m² | - |
| 1777805774 | 37.78° C | 43% | 995 hPa | - | - | 0 W/m² | - |
| 1777804849 | 38.89° C | 41% | 995 hPa | - | - | 0 W/m² | - |
| 1777803925 | 38.89° C | 42% | 995 hPa | - | - | 0 W/m² | - |
| 1777803000 | 38.89° C | 42% | 994 hPa | - | - | 0 W/m² | - |
| 1777802075 | 38.33° C | 41% | 994 hPa | - | - | 0 W/m² | - |
| 1777801151 | 39.44° C | 37% | 994 hPa | - | - | 0 W/m² | - |
| 1777800227 | 40.56° C | 36% | 994 hPa | - | - | 0 W/m² | - |
| 1777799302 | 41.11° C | 36% | 994 hPa | - | - | 0 W/m² | - |
| 1777798378 | 41.11° C | 36% | 994 hPa | - | - | 0 W/m² | - |
| 1777797453 | 41.11° C | 36% | 994 hPa | - | - | 0 W/m² | - |
| 1777796529 | 41.11° C | 37% | 994 hPa | - | - | 0 W/m² | - |
| 1777795604 | 40.56° C | 37% | 995 hPa | - | - | 0 W/m² | - |
| 1777794680 | 40.56° C | 38% | 995 hPa | - | - | 0 W/m² | - |
| 1777793755 | 40.56° C | 39% | 995 hPa | - | - | 0 W/m² | - |
| 1777792831 | 40.56° C | 39% | 996 hPa | - | - | 0 W/m² | - |
| 1777791906 | 40° C | 39% | 996 hPa | - | - | 0 W/m² | - |
| 1777790982 | 40° C | 40% | 996 hPa | - | - | 0 W/m² | - |
| 1777790057 | 39.44° C | 41% | 996 hPa | - | - | 0 W/m² | - |
| 1777789137 | 38.89° C | 42% | 997 hPa | - | - | 0 W/m² | - |
| 1777788209 | 38.33° C | 43% | 997 hPa | - | - | 0 W/m² | - |
| 1777787284 | 37.78° C | 45% | 998 hPa | - | - | 0 W/m² | - |
| 1777786359 | 37.78° C | 47% | 998 hPa | - | - | 0 W/m² | - |
| 1777785435 | 37.78° C | 48% | 999 hPa | - | - | 0 W/m² | - |
| 1777784510 | 38.33° C | 46% | 998 hPa | - | - | 0 W/m² | - |
* Rain since midnight (hover to see other rain measurements)
** Current wind speed in m/s (hover to see current wind gust speed)